TAF Text Data
IDs:
Format:
Raw Decoded Include METAR

Data at: 1137 UTC 23 Jun 2021

KBDL 231128Z 2312/2418 31005KT P6SM FEW250
  FM231700 30010KT P6SM FEW250
  FM240100 24003KT P6SM FEW250
  FM241400 12004KT P6SM FEW250
  FM241700 16007KT P6SM FEW200